Wetterstation Vordersexau
Wetterdaten: Dezember 2012
Datum Temp. A. Feuchte A. Luftdruck Regen Wind Richtung Taupunkt Windchill Windben
01.12.2012 -1,0 C 83 % 1011,8 hPa 0,0 l/m 0,2 km/h W -3,5 C -1,0 C 0,1 km/h
02.12.2012 0,8 C 84 % 1012,7 hPa 0,0 l/m 9,1 km/h W -1,5 C -2,2 C 5,0 km/h
03.12.2012 1,5 C 84 % 1013,7 hPa 1,4 l/m 6,3 km/h W -0,9 C -0,5 C 3,5 km/h
04.12.2012 4,4 C 84 % 1002,5 hPa 3,9 l/m 9,9 km/h W 2,0 C 1,4 C 5,5 km/h
05.12.2012 2,1 C 83 % 1002,9 hPa 2,8 l/m 2,7 km/h W-SW -0,4 C 1,4 C 1,5 km/h
06.12.2012 1,0 C 78 % 1013,0 hPa 0,4 l/m 2,3 km/h W-NW -2,4 C 0,3 C 1,3 km/h
07.12.2012 -1,4 C 86 % 1005,0 hPa 0,0 l/m 1,1 km/h O -3,5 C -1,4 C 0,6 km/h
08.12.2012 -2,2 C 86 % 1015,7 hPa 0,0 l/m 0,3 km/h NW -4,2 C -2,2 C 0,2 km/h
09.12.2012 -2,1 C 84 % 1020,6 hPa 0,7 l/m 15,2 km/h W-SW -4,4 C -8,3 C 8,4 km/h
10.12.2012 1,8 C 85 % 1011,8 hPa 1,1 l/m 9,9 km/h W -0,4 C -2,0 C 5,5 km/h
11.12.2012 -1,4 C 87 % 1020,1 hPa 0,0 l/m 0,2 km/h W -3,3 C -1,4 C 0,1 km/h
12.12.2012 -5,5 C 83 % 1020,5 hPa 0,7 l/m 0,0 km/h O -8,1 C -5,5 C 0,0 km/h
13.12.2012 -3,8 C 85 % 1010,5 hPa 0,4 l/m 0,0 km/h NW -5,9 C -3,8 C 0,0 km/h
14.12.2012 3,2 C 84 % 1002,3 hPa 0,7 l/m 0,8 km/h O-SO 0,6 C 3,1 C 0,4 km/h
15.12.2012 8,6 C 81 % 1003,6 hPa 4,6 l/m 11,8 km/h SW 5,6 C 5,2 C 6,5 km/h
16.12.2012 8,3 C 82 % 1008,3 hPa 4,6 l/m 15,1 km/h W 5,3 C 3,6 C 8,4 km/h
17.12.2012 7,3 C 83 % 1007,1 hPa 2,1 l/m 16,9 km/h W-SW 4,7 C 1,4 C 9,4 km/h
18.12.2012 5,0 C 85 % 1012,8 hPa 2,8 l/m 4,9 km/h W 2,7 C 3,6 C 2,7 km/h
19.12.2012 4,5 C 79 % 1019,8 hPa 0,4 l/m 0,0 km/h SO 1,2 C 4,5 C 0,0 km/h
20.12.2012 0,4 C 80 % 1012,7 hPa 5,3 l/m 0,1 km/h O-SO -2,7 C 0,4 C 0,0 km/h
21.12.2012 7,5 C 82 % 1011,1 hPa 0,7 l/m 7,8 km/h W 4,6 C 5,3 C 4,3 km/h
22.12.2012 6,3 C 79 % 1015,6 hPa 7,1 l/m 3,5 km/h S-SO 2,9 C 5,3 C 1,9 km/h
23.12.2012 12,4 C 79 % 1013,3 hPa 0,4 l/m 20,8 km/h W 8,8 C 6,7 C 11,6 km/h
24.12.2012 9,9 C 71 % 1009,4 hPa 0,0 l/m 2,9 km/h O-NO 4,4 C 9,5 C 1,6 km/h
25.12.2012 9,6 C 76 % 1006,5 hPa 3,9 l/m 8,5 km/h W-SW 5,4 C 6,9 C 4,7 km/h
26.12.2012 8,6 C 77 % 1013,9 hPa 0,0 l/m 19,5 km/h W 4,7 C 2,1 C 10,8 km/h
27.12.2012 8,6 C 79 % 1010,5 hPa 5,3 l/m 23,1 km/h W 5,2 C 1,0 C 12,8 km/h
28.12.2012 6,5 C 82 % 1024,5 hPa 1,8 l/m 6,7 km/h W 3,7 C 4,6 C 3,8 km/h
29.12.2012 6,7 C 78 % 1018,0 hPa 0,0 l/m 2,0 km/h SO 3,0 C 6,3 C 1,1 km/h
30.12.2012 8,5 C 71 % 1020,3 hPa 0,0 l/m 18,2 km/h W 3,5 C 2,5 C 10,1 km/h
31.12.2012 6,8 C 74 % 1018,3 hPa 0,0 l/m 7,3 km/h W-SW 2,4 C 5,1 C 4,1 km/h
Min-Datum 12.12.12 24.12.12 14.12.12 21 Tage 01.12.12 - 12.12.12 09.12.12 01.12.12
Min-Zeit 05:19 12:19 21:19 - 00:19 - 05:19 19:19 00:19
Minimum -10,7 C 43 % 997,6 hPa - 0,0 km/h - -12,3 C -15,5 C 0,0 km/h
Max-Datum 24.12.12 08.12.12 28.12.12 22.12.12 04.12.12 - 23.12.12 24.12.12 04.12.12
Max-Zeit 12:19 23:19 11:19 19:19 09:19 - 12:19 11:19 09:19
Maximum 19,8 C 88 % 1027,3 hPa 7,1 l/m 57,0 km/h
W
- 9,6 C 18,7 C 31,7 km/h
W
Durchschnitt 4,0 C 81 % 1012,5 hPa #51,3 l/m 7,3 km/h W 1,0 C 1,7 C 4,1 km/h

Durchschnitt Minimum Temp.0,6 C
Durchschnitt Maximum Temp.7,8 C
www.sexauwetter.de